createdAt,value
2018-07-07T00:01:40.960Z,17.40
2018-07-07T00:04:11.497Z,16.90
2018-07-07T00:06:42.105Z,17.40
2018-07-07T00:09:12.743Z,17.40
2018-07-07T00:11:43.422Z,17.30
2018-07-07T00:14:14.118Z,17.30
2018-07-07T00:16:44.733Z,17.30
2018-07-07T00:19:15.362Z,17.30
2018-07-07T00:21:46.058Z,17.40
2018-07-07T00:24:16.749Z,17.40
2018-07-07T00:26:47.582Z,17.40
2018-07-07T00:29:18.238Z,17.40
2018-07-07T00:31:49.005Z,17.40
2018-07-07T00:36:49.845Z,17.40
2018-07-07T00:39:20.433Z,17.50
2018-07-07T00:41:51.193Z,17.50
2018-07-07T00:44:21.846Z,17.50
2018-07-07T00:46:52.574Z,17.50
2018-07-07T00:49:23.202Z,17.50
2018-07-07T00:51:53.919Z,17.60
2018-07-07T00:54:24.625Z,17.50
2018-07-07T00:56:55.341Z,17.50
2018-07-07T00:59:25.941Z,17.50
2018-07-07T01:01:56.778Z,17.50
2018-07-07T01:04:27.587Z,17.50
2018-07-07T01:06:58.275Z,17.40
2018-07-07T01:09:28.970Z,17.40
2018-07-07T01:12:00.629Z,17.40
2018-07-07T01:14:31.272Z,17.40
2018-07-07T01:17:01.842Z,17.40
2018-07-07T01:19:32.609Z,17.40
2018-07-07T01:22:03.366Z,17.40
2018-07-07T01:24:33.977Z,17.40
2018-07-07T01:27:04.641Z,17.40
2018-07-07T01:29:35.319Z,17.40
2018-07-07T01:32:05.945Z,17.40
2018-07-07T01:34:36.566Z,17.40
2018-07-07T01:37:07.944Z,17.40
2018-07-07T01:39:38.565Z,17.40
2018-07-07T01:42:09.290Z,17.40
2018-07-07T01:44:39.896Z,17.40
2018-07-07T01:47:10.522Z,17.40
2018-07-07T01:49:41.191Z,17.40
2018-07-07T01:52:11.737Z,17.40
2018-07-07T01:54:42.339Z,17.40
2018-07-07T01:57:12.915Z,17.40
2018-07-07T01:59:43.533Z,17.40
2018-07-07T02:02:14.193Z,17.40
2018-07-07T02:04:44.800Z,17.40
2018-07-07T02:07:15.337Z,17.40
2018-07-07T02:09:45.919Z,17.30
2018-07-07T02:12:17.541Z,17.30
2018-07-07T02:14:48.175Z,17.30
2018-07-07T02:17:18.824Z,17.30
2018-07-07T02:19:49.493Z,17.30
2018-07-07T02:22:24.221Z,17.30
2018-07-07T02:24:54.818Z,17.30
2018-07-07T02:27:25.494Z,17.30
2018-07-07T02:29:56.097Z,17.30
2018-07-07T02:32:26.786Z,17.30
2018-07-07T02:34:57.454Z,17.30
2018-07-07T02:37:28.083Z,17.30
2018-07-07T02:39:58.709Z,17.20
2018-07-07T02:42:29.393Z,17.20
2018-07-07T02:45:00.098Z,17.20
2018-07-07T02:47:30.782Z,17.20
2018-07-07T02:52:31.603Z,17.20
2018-07-07T02:55:02.308Z,17.20
2018-07-07T02:57:33.060Z,17.10
2018-07-07T03:00:03.723Z,17.20
2018-07-07T03:02:34.353Z,17.10
2018-07-07T03:07:35.341Z,17.10
2018-07-07T03:10:06.180Z,17.00
2018-07-07T03:12:36.951Z,17.00
2018-07-07T03:15:07.730Z,17.00
2018-07-07T03:17:39.613Z,17.10
2018-07-07T03:20:10.658Z,17.00
2018-07-07T03:22:41.346Z,17.10
2018-07-07T03:25:12.059Z,17.10
2018-07-07T03:27:42.757Z,17.10
2018-07-07T03:30:13.461Z,17.10
2018-07-07T03:32:44.122Z,17.10
2018-07-07T03:35:14.834Z,17.10
2018-07-07T03:37:45.518Z,17.10
2018-07-07T03:40:16.173Z,17.10
2018-07-07T03:42:46.833Z,17.10
2018-07-07T03:45:17.426Z,17.20
2018-07-07T03:47:48.118Z,17.20
2018-07-07T03:50:18.751Z,17.20
2018-07-07T03:52:49.469Z,17.20
2018-07-07T03:55:20.154Z,17.20
2018-07-07T03:57:50.873Z,17.20
2018-07-07T04:00:21.582Z,17.20
2018-07-07T04:02:52.225Z,17.20
2018-07-07T04:05:22.815Z,17.30
2018-07-07T04:07:53.495Z,17.30
2018-07-07T04:10:24.144Z,17.30
2018-07-07T04:12:54.930Z,17.30
2018-07-07T04:15:25.714Z,17.40
2018-07-07T04:17:56.383Z,17.50
2018-07-07T04:20:27.058Z,17.50
2018-07-07T04:22:57.629Z,17.60
2018-07-07T04:25:28.845Z,17.60
2018-07-07T04:27:59.556Z,17.60
2018-07-07T04:30:30.384Z,17.70
2018-07-07T04:33:01.097Z,17.70
2018-07-07T04:35:31.697Z,17.70
2018-07-07T04:38:02.365Z,17.80
2018-07-07T04:40:33.705Z,17.90
2018-07-07T04:43:04.507Z,18.00
2018-07-07T04:45:35.179Z,18.00
2018-07-07T04:48:06.084Z,18.10
2018-07-07T04:50:36.877Z,18.20
2018-07-07T04:53:07.688Z,18.20
2018-07-07T04:55:39.221Z,18.30
2018-07-07T04:58:10.732Z,18.40
2018-07-07T05:00:42.417Z,18.40
2018-07-07T05:03:13.105Z,18.50
2018-07-07T05:05:43.785Z,18.60
2018-07-07T05:08:14.487Z,18.60
2018-07-07T05:10:45.288Z,18.70
2018-07-07T05:13:16.026Z,18.70
2018-07-07T05:15:47.084Z,18.80
2018-07-07T05:18:17.765Z,18.90
2018-07-07T05:20:48.568Z,19.00
2018-07-07T05:23:19.434Z,19.00
2018-07-07T05:28:20.684Z,19.20
2018-07-07T05:30:51.365Z,19.30
2018-07-07T05:33:22.101Z,19.30
2018-07-07T05:35:53.212Z,19.40
2018-07-07T05:38:23.783Z,19.40
2018-07-07T05:40:55.003Z,19.50
2018-07-07T05:43:25.778Z,19.50
2018-07-07T05:45:56.431Z,19.60
2018-07-07T05:48:27.017Z,19.70
2018-07-07T05:50:57.677Z,19.80
2018-07-07T05:53:28.314Z,19.80
2018-07-07T05:55:58.955Z,19.80
2018-07-07T05:58:29.525Z,19.80
2018-07-07T06:01:00.214Z,19.90
2018-07-07T06:03:30.830Z,19.80
2018-07-07T06:06:01.454Z,19.80
2018-07-07T06:08:32.069Z,19.80
2018-07-07T06:11:02.769Z,19.80
2018-07-07T06:13:33.429Z,19.90
2018-07-07T06:16:04.173Z,20.00
2018-07-07T06:18:34.815Z,20.00
2018-07-07T06:21:05.482Z,20.00
2018-07-07T06:23:36.183Z,20.00
2018-07-07T06:26:06.982Z,20.00
2018-07-07T06:28:37.782Z,20.00
2018-07-07T06:31:09.178Z,20.00
2018-07-07T06:33:39.906Z,20.00
2018-07-07T06:36:10.633Z,20.10
2018-07-07T06:38:41.303Z,20.20
2018-07-07T06:41:11.931Z,20.30
2018-07-07T06:43:42.548Z,20.40
2018-07-07T06:46:13.815Z,20.50
2018-07-07T06:48:44.428Z,20.70
2018-07-07T06:51:15.061Z,20.80
2018-07-07T06:53:45.738Z,21.00
2018-07-07T06:56:16.321Z,21.20
2018-07-07T06:58:46.929Z,21.30
2018-07-07T07:01:17.578Z,21.40
2018-07-07T07:03:48.644Z,21.40
2018-07-07T07:06:19.356Z,21.40
2018-07-07T07:08:50.166Z,21.50
2018-07-07T07:11:20.858Z,21.60
2018-07-07T07:13:54.553Z,21.70
2018-07-07T07:16:25.165Z,21.80
2018-07-07T07:18:55.754Z,21.80
2018-07-07T07:21:26.500Z,21.80
2018-07-07T07:23:57.135Z,21.80
2018-07-07T07:26:27.855Z,21.80
2018-07-07T07:28:58.600Z,21.80
2018-07-07T07:31:29.333Z,21.80
2018-07-07T07:33:59.918Z,21.80
2018-07-07T07:36:43.681Z,21.90
2018-07-07T07:39:14.498Z,22.00
2018-07-07T07:41:45.512Z,22.10
2018-07-07T07:44:16.138Z,22.20
2018-07-07T07:46:46.795Z,22.40
2018-07-07T07:49:17.391Z,22.40
2018-07-07T07:51:48.020Z,22.40
2018-07-07T07:54:18.732Z,22.40
2018-07-07T07:56:49.451Z,22.40
2018-07-07T07:59:20.022Z,22.40
2018-07-07T08:01:50.685Z,22.40
2018-07-07T08:04:21.324Z,22.50
2018-07-07T08:06:51.991Z,22.70
2018-07-07T08:09:22.615Z,22.80
2018-07-07T08:11:53.302Z,23.00
2018-07-07T08:14:23.993Z,23.20
2018-07-07T08:16:54.959Z,23.30
2018-07-07T08:19:25.628Z,23.50
2018-07-07T08:21:56.292Z,23.50
2018-07-07T08:24:27.772Z,23.60
2018-07-07T08:26:58.444Z,23.80
2018-07-07T08:29:29.085Z,23.90
2018-07-07T08:31:59.703Z,24.10
2018-07-07T08:34:30.450Z,24.20
2018-07-07T08:37:01.153Z,24.00
2018-07-07T08:39:31.843Z,23.90
2018-07-07T08:42:02.580Z,23.90
2018-07-07T08:44:33.177Z,24.00
2018-07-07T08:47:03.799Z,24.20
2018-07-07T08:49:34.480Z,24.30
2018-07-07T08:52:05.184Z,24.10
2018-07-07T08:54:35.733Z,24.00
2018-07-07T08:57:06.583Z,24.10
2018-07-07T08:59:37.256Z,24.10
2018-07-07T09:02:07.918Z,24.10
2018-07-07T09:04:38.537Z,24.10
2018-07-07T09:07:09.253Z,24.20
2018-07-07T09:09:39.894Z,24.30
2018-07-07T09:12:10.545Z,24.30
2018-07-07T09:14:41.114Z,24.40
2018-07-07T09:17:12.061Z,24.30
2018-07-07T09:19:42.728Z,24.40
2018-07-07T09:22:13.373Z,24.40
2018-07-07T09:24:43.968Z,24.30
2018-07-07T09:27:14.657Z,24.30
2018-07-07T09:29:45.327Z,24.10
2018-07-07T09:32:15.914Z,24.20
2018-07-07T09:34:46.680Z,24.20
2018-07-07T09:37:17.297Z,24.20
2018-07-07T09:39:47.836Z,24.10
2018-07-07T09:42:18.445Z,24.20
2018-07-07T09:44:49.057Z,24.20
2018-07-07T09:47:19.789Z,24.20
2018-07-07T09:49:50.531Z,24.10
2018-07-07T09:52:21.269Z,24.30
2018-07-07T09:54:52.346Z,24.40
2018-07-07T09:57:23.029Z,24.50
2018-07-07T09:59:53.712Z,24.40
2018-07-07T10:02:24.405Z,24.30
2018-07-07T10:04:54.975Z,24.20
2018-07-07T10:07:25.724Z,24.40
2018-07-07T10:09:56.292Z,24.50
2018-07-07T10:12:26.912Z,24.60
2018-07-07T10:14:57.520Z,24.60
2018-07-07T10:17:28.282Z,24.60
2018-07-07T10:19:58.897Z,24.70
2018-07-07T10:22:29.583Z,24.90
2018-07-07T10:25:00.252Z,25.00
2018-07-07T10:27:30.839Z,25.00
2018-07-07T10:30:01.441Z,25.10
2018-07-07T10:32:32.080Z,25.30
2018-07-07T10:35:02.750Z,25.40
2018-07-07T10:37:33.347Z,25.40
2018-07-07T10:40:03.929Z,25.30
2018-07-07T10:42:34.584Z,25.30
2018-07-07T10:45:05.413Z,25.30
2018-07-07T10:47:35.969Z,25.60
2018-07-07T10:50:06.650Z,26.10
2018-07-07T10:52:37.251Z,26.50
2018-07-07T10:55:07.930Z,26.90
2018-07-07T10:57:38.526Z,27.30
2018-07-07T11:00:09.250Z,27.50
2018-07-07T11:02:39.913Z,27.70
2018-07-07T11:05:10.580Z,28.00
2018-07-07T11:07:41.189Z,28.30
2018-07-07T11:10:11.815Z,28.50
2018-07-07T11:12:42.369Z,28.30
2018-07-07T11:15:13.071Z,28.20
2018-07-07T11:17:43.681Z,28.10
2018-07-07T11:20:14.225Z,28.00
2018-07-07T11:22:44.878Z,27.90
2018-07-07T11:25:15.528Z,27.90
2018-07-07T11:27:46.153Z,27.90
2018-07-07T11:30:16.830Z,28.00
2018-07-07T11:32:47.430Z,28.20
2018-07-07T11:35:18.137Z,28.50
2018-07-07T11:37:49.165Z,29.00
2018-07-07T11:40:19.873Z,29.20
2018-07-07T11:42:50.549Z,29.60
2018-07-07T11:45:21.158Z,29.60
2018-07-07T11:47:51.910Z,30.10
2018-07-07T11:50:22.635Z,30.70
2018-07-07T11:52:53.262Z,31.30
2018-07-07T11:55:23.964Z,31.90
2018-07-07T11:57:54.649Z,32.20
2018-07-07T12:00:25.341Z,32.40
2018-07-07T12:02:55.935Z,31.80
2018-07-07T12:05:26.599Z,31.10
2018-07-07T12:08:00.902Z,30.70
2018-07-07T12:10:27.927Z,30.90
2018-07-07T12:12:58.559Z,31.00
2018-07-07T12:15:29.179Z,31.60
2018-07-07T12:17:59.879Z,31.60
2018-07-07T12:20:30.799Z,32.10
2018-07-07T12:23:01.454Z,32.50
2018-07-07T12:25:32.149Z,33.00
2018-07-07T12:28:02.832Z,33.10
2018-07-07T12:30:33.498Z,33.20
2018-07-07T12:33:04.144Z,32.80
2018-07-07T12:35:35.364Z,32.10
2018-07-07T12:38:06.017Z,31.90
2018-07-07T12:40:36.771Z,32.40
2018-07-07T12:43:07.673Z,33.10
2018-07-07T12:45:38.371Z,33.50
2018-07-07T12:50:39.077Z,34.40
2018-07-07T12:53:09.734Z,34.50
2018-07-07T12:55:40.387Z,34.40
2018-07-07T12:58:11.014Z,34.20
2018-07-07T13:00:41.644Z,34.50
2018-07-07T13:03:12.341Z,34.30
2018-07-07T13:05:43.027Z,33.70
2018-07-07T13:10:43.835Z,32.90
2018-07-07T13:13:14.497Z,32.70
2018-07-07T13:15:45.070Z,32.70
2018-07-07T13:18:15.689Z,32.90
2018-07-07T13:20:46.383Z,33.50
2018-07-07T13:23:16.971Z,34.40
2018-07-07T13:25:47.635Z,35.20
2018-07-07T13:28:18.311Z,36.00
2018-07-07T13:30:48.907Z,36.30
2018-07-07T13:33:19.577Z,36.20
2018-07-07T13:35:50.222Z,36.20
2018-07-07T13:38:20.858Z,36.20
2018-07-07T13:40:51.552Z,36.10
2018-07-07T13:43:22.224Z,36.30
2018-07-07T13:45:52.861Z,36.20
2018-07-07T13:48:23.505Z,35.70
2018-07-07T13:50:54.120Z,35.70
2018-07-07T13:53:24.763Z,35.20
2018-07-07T13:55:55.420Z,35.20
2018-07-07T13:58:26.115Z,35.50
2018-07-07T14:00:57.235Z,35.50
2018-07-07T14:03:28.394Z,35.50
2018-07-07T14:05:58.969Z,35.80
2018-07-07T14:08:29.675Z,35.50
2018-07-07T14:11:00.405Z,35.50
2018-07-07T14:13:31.037Z,35.60
2018-07-07T14:16:01.655Z,35.90
2018-07-07T14:18:32.379Z,36.20
2018-07-07T14:21:02.977Z,36.00
2018-07-07T14:23:34.255Z,36.20
2018-07-07T14:26:04.861Z,36.30
2018-07-07T14:28:35.527Z,36.10
2018-07-07T14:31:06.126Z,36.30
2018-07-07T14:33:36.746Z,35.30
2018-07-07T14:36:07.406Z,34.90
2018-07-07T14:38:38.741Z,35.20
2018-07-07T14:41:17.619Z,35.40
2018-07-07T14:43:54.022Z,35.90
2018-07-07T14:46:25.425Z,35.20
2018-07-07T14:48:56.130Z,35.70
2018-07-07T14:51:26.831Z,35.60
2018-07-07T14:53:57.531Z,35.30
2018-07-07T14:56:28.927Z,35.40
2018-07-07T14:58:59.544Z,34.60
2018-07-07T15:01:30.222Z,33.70
2018-07-07T15:04:03.172Z,32.30
2018-07-07T15:06:33.789Z,32.90
2018-07-07T15:09:05.242Z,34.00
2018-07-07T15:11:35.909Z,34.90
2018-07-07T15:14:06.669Z,35.70
2018-07-07T15:16:37.321Z,36.20
2018-07-07T15:19:07.969Z,36.60
2018-07-07T15:21:38.574Z,36.70
2018-07-07T15:24:09.454Z,36.90
2018-07-07T15:26:40.081Z,37.30
2018-07-07T15:29:10.760Z,37.40
2018-07-07T15:31:41.404Z,37.50
2018-07-07T15:34:12.130Z,37.70
2018-07-07T15:36:42.729Z,37.60
2018-07-07T15:39:13.415Z,37.70
2018-07-07T15:41:44.006Z,38.30
2018-07-07T15:44:14.621Z,38.60
2018-07-07T15:46:45.251Z,38.80
2018-07-07T15:49:15.885Z,38.80
2018-07-07T15:51:46.588Z,39.10
2018-07-07T15:54:17.257Z,39.60
2018-07-07T15:56:47.974Z,39.60
2018-07-07T15:59:18.653Z,39.40
2018-07-07T16:01:49.321Z,39.50
2018-07-07T16:04:20.030Z,39.50
2018-07-07T16:06:50.622Z,39.80
2018-07-07T16:09:21.293Z,39.50
2018-07-07T16:11:52.044Z,39.20
2018-07-07T16:14:22.715Z,39.40
2018-07-07T16:16:53.279Z,39.60
2018-07-07T16:19:24.022Z,39.90
2018-07-07T16:21:54.897Z,40.20
2018-07-07T16:24:25.938Z,40.10
2018-07-07T16:26:56.481Z,38.40
2018-07-07T16:29:27.158Z,37.00
2018-07-07T16:31:57.829Z,37.90
2018-07-07T16:34:28.521Z,38.50
2018-07-07T16:36:59.143Z,39.20
2018-07-07T16:39:29.942Z,39.40
2018-07-07T16:42:00.609Z,39.80
2018-07-07T16:44:31.311Z,39.40
2018-07-07T16:47:03.631Z,38.20
2018-07-07T16:49:34.813Z,36.10
2018-07-07T16:52:05.779Z,34.70
2018-07-07T16:54:36.571Z,33.40
2018-07-07T16:57:07.274Z,33.00
2018-07-07T16:59:38.004Z,33.20
2018-07-07T17:02:08.892Z,34.20
2018-07-07T17:07:09.908Z,33.60
2018-07-07T17:09:40.605Z,33.10
2018-07-07T17:12:11.284Z,32.60
2018-07-07T17:14:42.053Z,32.50
2018-07-07T17:17:12.727Z,32.10
2018-07-07T17:19:43.714Z,31.00
2018-07-07T17:22:14.316Z,30.20
2018-07-07T17:24:45.648Z,29.60
2018-07-07T17:27:16.267Z,29.50
2018-07-07T17:29:47.057Z,29.50
2018-07-07T17:34:48.027Z,28.80
2018-07-07T17:37:18.741Z,28.40
2018-07-07T17:39:49.569Z,28.30
2018-07-07T17:42:20.212Z,28.20
2018-07-07T17:44:50.914Z,27.90
2018-07-07T17:47:21.653Z,27.70
2018-07-07T17:49:52.354Z,27.50
2018-07-07T17:52:23.761Z,27.40
2018-07-07T17:54:54.579Z,27.10
2018-07-07T17:57:25.579Z,27.00
2018-07-07T17:59:56.967Z,26.80
2018-07-07T18:02:27.969Z,26.50
2018-07-07T18:04:58.691Z,26.40
2018-07-07T18:07:29.354Z,26.20
2018-07-07T18:10:00.054Z,26.10
2018-07-07T18:12:30.661Z,26.00
2018-07-07T18:15:01.323Z,25.80
2018-07-07T18:17:31.950Z,25.70
2018-07-07T18:20:02.562Z,25.50
2018-07-07T18:22:33.214Z,25.50
2018-07-07T18:25:04.578Z,25.30
2018-07-07T18:27:35.221Z,25.10
2018-07-07T18:30:05.937Z,24.90
2018-07-07T18:32:36.606Z,24.70
2018-07-07T18:35:07.335Z,24.70
2018-07-07T18:37:38.062Z,24.60
2018-07-07T18:40:08.953Z,24.50
2018-07-07T18:42:39.599Z,24.40
2018-07-07T18:45:10.404Z,24.30
2018-07-07T18:47:41.086Z,24.20
2018-07-07T18:50:11.805Z,24.10
2018-07-07T18:52:42.459Z,24.00
2018-07-07T18:55:13.262Z,23.80
2018-07-07T18:57:43.916Z,23.80
2018-07-07T19:00:14.613Z,23.80
2018-07-07T19:02:45.235Z,23.70
2018-07-07T19:05:15.968Z,23.50
2018-07-07T19:07:46.578Z,23.50
2018-07-07T19:10:17.258Z,23.40
2018-07-07T19:12:47.869Z,23.30
2018-07-07T19:15:21.181Z,23.20
2018-07-07T19:17:52.615Z,23.10
2018-07-07T19:20:28.296Z,23.00
2018-07-07T19:23:04.041Z,23.00
2018-07-07T19:25:39.931Z,22.90
2018-07-07T19:28:10.540Z,22.90
2018-07-07T19:30:41.162Z,22.90
2018-07-07T19:33:16.995Z,22.80
2018-07-07T19:35:52.707Z,22.70
2018-07-07T19:38:23.421Z,22.70
2018-07-07T19:40:54.198Z,22.60
2018-07-07T19:43:24.919Z,22.50
2018-07-07T19:45:55.542Z,22.40
2018-07-07T19:48:26.414Z,22.30
2018-07-07T19:50:57.180Z,22.30
2018-07-07T19:53:27.774Z,22.20
2018-07-07T19:55:58.482Z,22.20
2018-07-07T19:58:29.065Z,22.20
2018-07-07T20:00:59.751Z,22.10
2018-07-07T20:03:30.369Z,22.10
2018-07-07T20:06:00.992Z,22.00
2018-07-07T20:08:31.694Z,21.90
2018-07-07T20:11:02.369Z,21.90
2018-07-07T20:13:33.034Z,21.90
2018-07-07T20:16:18.895Z,21.80
2018-07-07T20:19:28.074Z,21.70
2018-07-07T20:21:59.833Z,21.70
2018-07-07T20:24:36.798Z,21.60
2018-07-07T20:27:14.132Z,21.50
2018-07-07T20:29:44.736Z,21.50
2018-07-07T20:32:20.490Z,21.40
2018-07-07T20:34:51.140Z,21.30
2018-07-07T20:37:21.791Z,21.20
2018-07-07T20:39:52.440Z,21.10
2018-07-07T20:42:23.323Z,21.10
2018-07-07T20:44:53.979Z,21.00
2018-07-07T20:47:24.610Z,20.90
2018-07-07T20:49:55.190Z,20.80
2018-07-07T20:52:25.752Z,20.70
2018-07-07T20:54:56.446Z,20.60
2018-07-07T20:57:27.057Z,20.60
2018-07-07T20:59:57.714Z,20.60
2018-07-07T21:02:28.317Z,20.50
2018-07-07T21:04:58.919Z,20.50
2018-07-07T21:07:29.587Z,20.40
2018-07-07T21:10:00.246Z,20.30
2018-07-07T21:12:30.945Z,20.30
2018-07-07T21:15:01.554Z,20.20
2018-07-07T21:17:32.261Z,20.10
2018-07-07T21:20:02.910Z,20.10
2018-07-07T21:22:33.543Z,20.00
2018-07-07T21:25:04.166Z,20.00
2018-07-07T21:27:35.019Z,19.90
2018-07-07T21:30:06.025Z,19.90
2018-07-07T21:32:36.668Z,19.80
2018-07-07T21:35:07.342Z,19.70
2018-07-07T21:37:37.993Z,19.70
2018-07-07T21:40:08.703Z,19.50
2018-07-07T21:42:39.715Z,19.50
2018-07-07T21:45:10.341Z,19.50
2018-07-07T21:47:41.010Z,19.50
2018-07-07T21:50:11.740Z,19.40
2018-07-07T21:52:42.525Z,19.40
2018-07-07T21:55:13.234Z,19.30
2018-07-07T21:57:48.990Z,19.30
2018-07-07T22:00:24.950Z,19.20
2018-07-07T22:03:00.829Z,19.20
2018-07-07T22:05:32.301Z,19.10
2018-07-07T22:08:06.945Z,19.10
2018-07-07T22:10:37.712Z,19.00
2018-07-07T22:13:08.398Z,19.00
2018-07-07T22:15:39.077Z,18.90
2018-07-07T22:18:09.675Z,18.80
2018-07-07T22:20:40.445Z,18.70
2018-07-07T22:23:11.053Z,18.70
2018-07-07T22:25:41.708Z,18.70
2018-07-07T22:28:12.414Z,18.70
2018-07-07T22:30:43.081Z,18.60
2018-07-07T22:33:18.715Z,18.60
2018-07-07T22:35:54.548Z,18.50
2018-07-07T22:38:30.733Z,18.50
2018-07-07T22:41:02.093Z,18.50
2018-07-07T22:43:32.762Z,18.40
2018-07-07T22:46:03.368Z,18.30
2018-07-07T22:48:34.053Z,18.20
2018-07-07T22:51:04.678Z,18.10
2018-07-07T22:53:35.376Z,18.10
2018-07-07T22:56:06.179Z,18.00
2018-07-07T22:58:36.896Z,18.00
2018-07-07T23:01:07.633Z,17.90
2018-07-07T23:03:38.261Z,17.90
2018-07-07T23:06:08.945Z,17.90
2018-07-07T23:08:39.613Z,17.80
2018-07-07T23:11:10.265Z,17.80
2018-07-07T23:13:40.901Z,17.70
2018-07-07T23:16:11.623Z,17.70
2018-07-07T23:18:42.298Z,17.60
2018-07-07T23:21:13.005Z,17.60
2018-07-07T23:23:43.711Z,17.50
2018-07-07T23:26:15.259Z,17.40
2018-07-07T23:28:45.957Z,17.40
2018-07-07T23:31:16.567Z,17.40
2018-07-07T23:33:47.235Z,17.40
2018-07-07T23:36:17.959Z,17.30
2018-07-07T23:38:48.591Z,17.30
2018-07-07T23:41:19.265Z,17.30
2018-07-07T23:43:49.911Z,17.20
2018-07-07T23:46:20.521Z,17.20
2018-07-07T23:48:51.172Z,17.10
2018-07-07T23:51:21.797Z,17.10
2018-07-07T23:53:52.397Z,17.00
2018-07-07T23:56:23.026Z,17.00
2018-07-07T23:58:53.659Z,17.00
